createdAt,value
2022-08-22T00:02:03.865Z,4.17
2022-08-22T00:02:44.826Z,2.93
2022-08-22T00:03:01.015Z,4.00
2022-08-22T00:04:36.592Z,4.07
2022-08-22T00:07:10.373Z,3.77
2022-08-22T00:09:44.835Z,3.80
2022-08-22T00:12:18.281Z,3.97
2022-08-22T00:14:49.964Z,3.50
2022-08-22T00:17:34.540Z,3.80
2022-08-22T00:20:09.174Z,3.63
2022-08-22T00:22:42.380Z,3.27
2022-08-22T00:25:31.596Z,3.27
2022-08-22T00:28:05.213Z,3.50
2022-08-22T00:30:42.387Z,3.70
2022-08-22T00:33:20.276Z,3.27
2022-08-22T00:35:51.390Z,3.90
2022-08-22T00:38:22.515Z,3.70
2022-08-22T00:40:57.786Z,3.43
2022-08-22T00:44:00.986Z,3.70
2022-08-22T00:46:55.115Z,3.67
2022-08-22T00:49:53.319Z,3.50
2022-08-22T00:52:44.978Z,3.20
2022-08-22T00:55:34.867Z,3.93
2022-08-22T00:58:33.509Z,3.57
2022-08-22T01:01:06.084Z,3.60
2022-08-22T01:03:54.783Z,3.80
2022-08-22T01:06:27.944Z,3.77
2022-08-22T01:09:02.888Z,4.37
2022-08-22T01:12:04.804Z,3.97
2022-08-22T01:14:42.775Z,3.87
2022-08-22T01:17:43.511Z,3.67
2022-08-22T01:20:48.895Z,3.73
2022-08-22T01:23:55.667Z,3.37
2022-08-22T01:27:00.810Z,3.27
2022-08-22T01:29:54.320Z,3.27
2022-08-22T01:33:03.513Z,3.50
2022-08-22T01:36:02.824Z,3.40
2022-08-22T01:39:04.553Z,3.50
2022-08-22T01:42:15.984Z,4.30
2022-08-22T01:45:14.607Z,3.83
2022-08-22T01:47:49.413Z,3.53
2022-08-22T01:50:30.019Z,3.47
2022-08-22T01:53:04.607Z,3.60
2022-08-22T01:55:36.296Z,3.30
2022-08-22T01:58:14.406Z,3.00
2022-08-22T02:00:59.506Z,3.33
2022-08-22T02:03:32.432Z,3.20
2022-08-22T02:06:07.124Z,3.27
2022-08-22T02:08:43.990Z,3.57
2022-08-22T02:11:31.131Z,3.47
2022-08-22T02:14:07.105Z,3.63
2022-08-22T02:16:40.094Z,3.90
2022-08-22T02:19:20.872Z,3.30
2022-08-22T02:21:54.530Z,3.77
2022-08-22T02:24:35.251Z,3.33
2022-08-22T02:27:11.611Z,3.60
2022-08-22T02:29:49.224Z,3.37
2022-08-22T02:32:22.283Z,3.57
2022-08-22T02:34:58.896Z,3.50
2022-08-22T02:37:35.310Z,3.37
2022-08-22T02:40:10.213Z,3.60
2022-08-22T02:42:43.261Z,3.40
2022-08-22T02:45:20.797Z,3.90
2022-08-22T02:47:56.578Z,3.50
2022-08-22T02:50:34.343Z,4.10
2022-08-22T02:53:10.865Z,3.90
2022-08-22T02:55:47.728Z,3.43
2022-08-22T02:58:22.958Z,3.50
2022-08-22T03:01:09.045Z,3.57
2022-08-22T03:03:38.558Z,3.77
2022-08-22T03:06:27.419Z,3.67
2022-08-22T03:09:05.126Z,3.40
2022-08-22T03:11:36.334Z,3.40
2022-08-22T03:14:07.749Z,3.83
2022-08-22T03:16:40.431Z,3.80
2022-08-22T03:19:18.847Z,4.00
2022-08-22T03:21:52.987Z,3.70
2022-08-22T03:24:25.165Z,3.63
2022-08-22T03:27:00.640Z,4.13
2022-08-22T03:29:35.764Z,3.83
2022-08-22T03:32:11.090Z,3.80
2022-08-22T03:34:38.715Z,3.40
2022-08-22T03:37:12.678Z,3.67
2022-08-22T03:39:51.413Z,4.50
2022-08-22T03:42:38.924Z,4.27
2022-08-22T03:45:34.159Z,4.10
2022-08-22T03:48:37.623Z,3.87
2022-08-22T03:51:27.037Z,3.83
2022-08-22T03:54:21.860Z,3.90
2022-08-22T03:57:22.076Z,4.17
2022-08-22T04:00:31.161Z,4.07
2022-08-22T04:03:45.812Z,3.83
2022-08-22T04:07:02.302Z,5.60
2022-08-22T04:10:06.483Z,4.10
2022-08-22T04:12:57.210Z,4.27
2022-08-22T04:15:40.680Z,4.30
2022-08-22T04:18:43.780Z,4.30
2022-08-22T04:21:32.871Z,4.13
2022-08-22T04:24:26.052Z,4.77
2022-08-22T04:26:56.146Z,3.80
2022-08-22T04:29:28.487Z,4.33
2022-08-22T04:32:02.791Z,4.20
2022-08-22T04:34:36.226Z,4.80
2022-08-22T04:37:09.193Z,4.20
2022-08-22T04:39:43.067Z,4.40
2022-08-22T04:42:32.399Z,4.57
2022-08-22T04:45:06.860Z,4.93
2022-08-22T04:47:38.804Z,4.50
2022-08-22T04:50:13.676Z,5.10
2022-08-22T04:52:54.531Z,5.73
2022-08-22T04:55:33.254Z,4.90
2022-08-22T04:58:10.021Z,5.33
2022-08-22T05:00:42.217Z,4.80
2022-08-22T05:03:14.843Z,5.30
2022-08-22T05:05:44.670Z,5.17
2022-08-22T05:08:18.562Z,5.60
2022-08-22T05:10:49.200Z,6.80
2022-08-22T05:13:22.002Z,6.57
2022-08-22T05:15:53.588Z,6.60
2022-08-22T05:18:23.779Z,6.10
2022-08-22T05:21:00.728Z,6.13
2022-08-22T05:23:30.623Z,5.80
2022-08-22T05:26:00.734Z,6.43
2022-08-22T05:28:33.963Z,5.93
2022-08-22T05:31:03.694Z,5.93
2022-08-22T05:33:34.594Z,6.17
2022-08-22T05:36:06.358Z,6.30
2022-08-22T05:38:37.793Z,6.17
2022-08-22T05:41:09.652Z,6.60
2022-08-22T05:43:39.491Z,6.30
2022-08-22T05:46:15.941Z,6.20
2022-08-22T05:48:51.384Z,5.90
2022-08-22T05:51:24.150Z,6.33
2022-08-22T05:53:58.064Z,5.30
2022-08-22T05:56:34.834Z,5.67
2022-08-22T05:59:08.548Z,5.33
2022-08-22T06:01:43.360Z,6.10
2022-08-22T06:04:18.159Z,6.07
2022-08-22T06:06:52.266Z,5.77
2022-08-22T06:09:22.779Z,6.10
2022-08-22T06:11:56.214Z,5.97
2022-08-22T06:14:30.736Z,5.77
2022-08-22T06:17:04.995Z,5.50
2022-08-22T06:19:36.006Z,5.37
2022-08-22T06:22:04.787Z,5.03
2022-08-22T06:24:35.836Z,4.97
2022-08-22T06:27:07.580Z,4.10
2022-08-22T06:29:39.361Z,4.80
2022-08-22T06:32:11.781Z,4.83
2022-08-22T06:34:42.511Z,4.83
2022-08-22T06:37:13.122Z,4.37
2022-08-22T06:39:44.274Z,4.57
2022-08-22T06:42:16.736Z,4.23
2022-08-22T06:44:46.905Z,3.93
2022-08-22T06:47:19.414Z,3.80
2022-08-22T06:49:47.010Z,4.07
2022-08-22T06:52:19.756Z,4.27
2022-08-22T06:54:48.700Z,4.20
2022-08-22T06:57:28.033Z,4.20
2022-08-22T06:59:56.675Z,4.50
2022-08-22T07:02:29.827Z,4.20
2022-08-22T07:04:57.697Z,4.07
2022-08-22T07:07:27.117Z,4.13
2022-08-22T07:09:55.774Z,3.27
2022-08-22T07:12:33.545Z,3.20
2022-08-22T07:15:10.842Z,2.90
2022-08-22T07:17:48.862Z,3.50
2022-08-22T07:20:23.638Z,3.60
2022-08-22T07:22:56.999Z,3.33
2022-08-22T07:25:24.501Z,3.83
2022-08-22T07:28:14.561Z,3.23
2022-08-22T07:30:53.690Z,3.50
2022-08-22T07:33:34.774Z,4.20
2022-08-22T07:36:16.997Z,3.97
2022-08-22T07:38:47.506Z,3.73
2022-08-22T07:41:21.521Z,3.40
2022-08-22T07:43:52.087Z,2.60
2022-08-22T07:46:28.198Z,2.77
2022-08-22T07:49:10.311Z,2.53
2022-08-22T07:51:47.371Z,2.83
2022-08-22T07:54:18.759Z,2.97
2022-08-22T07:56:56.948Z,2.77
2022-08-22T07:59:26.455Z,2.60
2022-08-22T08:01:56.707Z,1.70
2022-08-22T08:04:28.580Z,1.90
2022-08-22T08:06:58.446Z,2.00
2022-08-22T08:09:29.020Z,1.50
2022-08-22T08:11:57.410Z,1.40
2022-08-22T08:14:25.482Z,2.00
2022-08-22T08:17:00.544Z,1.33
2022-08-22T08:19:28.892Z,1.90
2022-08-22T08:21:57.471Z,1.30
2022-08-22T08:24:26.511Z,1.47
2022-08-22T08:27:14.238Z,1.40
2022-08-22T08:29:45.243Z,1.40
2022-08-22T08:32:12.935Z,1.50
2022-08-22T08:34:42.760Z,1.20
2022-08-22T08:37:16.466Z,1.90
2022-08-22T08:39:48.438Z,1.30
2022-08-22T08:42:58.015Z,1.07
2022-08-22T08:45:58.294Z,1.30
2022-08-22T08:48:55.524Z,1.40
2022-08-22T08:51:51.621Z,1.57
2022-08-22T08:55:15.960Z,1.30
2022-08-22T08:58:06.747Z,1.13
2022-08-22T09:00:52.874Z,1.50
2022-08-22T09:03:37.202Z,1.40
2022-08-22T09:06:28.010Z,1.10
2022-08-22T09:09:06.911Z,1.50
2022-08-22T09:12:20.619Z,1.40
2022-08-22T09:15:14.094Z,1.47
2022-08-22T09:18:10.395Z,1.10
2022-08-22T09:21:12.792Z,1.23
2022-08-22T09:24:15.170Z,1.50
2022-08-22T09:26:48.363Z,1.30
2022-08-22T09:29:51.406Z,1.70
2022-08-22T09:32:37.582Z,1.37
2022-08-22T09:35:10.077Z,1.70
2022-08-22T09:37:47.513Z,1.27
2022-08-22T09:43:04.911Z,1.70
2022-08-22T09:45:40.041Z,1.20
2022-08-22T09:48:23.770Z,1.60
2022-08-22T09:51:28.259Z,1.33
2022-08-22T09:54:06.597Z,1.33
2022-08-22T09:56:38.378Z,1.30
2022-08-22T09:59:11.317Z,1.37
2022-08-22T10:01:43.795Z,1.30
2022-08-22T10:04:35.958Z,1.30
2022-08-22T10:07:12.056Z,1.40
2022-08-22T10:09:53.382Z,1.50
2022-08-22T10:12:35.555Z,1.20
2022-08-22T10:15:15.668Z,1.40
2022-08-22T10:17:54.918Z,1.30
2022-08-22T10:20:28.388Z,1.40
2022-08-22T10:23:05.033Z,1.27
2022-08-22T10:25:41.742Z,1.53
2022-08-22T10:28:17.149Z,1.40
2022-08-22T10:31:11.221Z,1.20
2022-08-22T10:33:42.577Z,1.50
2022-08-22T10:36:15.641Z,1.17
2022-08-22T10:38:47.006Z,1.30
2022-08-22T10:41:25.269Z,1.73
2022-08-22T10:44:01.282Z,1.27
2022-08-22T10:46:37.267Z,1.27
2022-08-22T10:49:12.773Z,1.30
2022-08-22T10:51:49.032Z,1.27
2022-08-22T10:54:36.909Z,1.20
2022-08-22T10:57:31.585Z,1.40
2022-08-22T11:00:08.183Z,1.30
2022-08-22T11:02:53.100Z,1.80
2022-08-22T11:05:40.837Z,1.40
2022-08-22T11:08:43.522Z,1.57
2022-08-22T11:11:32.766Z,1.90
2022-08-22T11:14:32.577Z,1.53
2022-08-22T11:17:30.223Z,1.60
2022-08-22T11:20:19.645Z,1.37
2022-08-22T11:22:59.115Z,1.27
2022-08-22T11:25:52.362Z,1.10
2022-08-22T11:28:36.014Z,1.20
2022-08-22T11:31:09.540Z,1.40
2022-08-22T11:33:47.788Z,1.27
2022-08-22T11:36:36.508Z,1.70
2022-08-22T11:39:18.285Z,5.57
2022-08-22T11:41:54.805Z,2.23
2022-08-22T11:44:27.814Z,1.27
2022-08-22T11:46:56.736Z,1.53
2022-08-22T11:49:45.287Z,1.90
2022-08-22T11:52:30.778Z,2.60
2022-08-22T11:55:21.652Z,1.40
2022-08-22T11:57:52.378Z,1.53
2022-08-22T12:00:29.710Z,1.60
2022-08-22T12:03:25.753Z,2.10
2022-08-22T12:06:01.741Z,1.47
2022-08-22T12:09:01.810Z,1.30
2022-08-22T12:11:37.870Z,1.80
2022-08-22T12:14:14.253Z,1.40
2022-08-22T12:16:55.014Z,1.30
2022-08-22T12:19:32.803Z,1.00
2022-08-22T12:22:16.061Z,1.33
2022-08-22T12:25:03.334Z,1.30
2022-08-22T12:27:55.420Z,1.50
2022-08-22T12:30:33.306Z,1.20
2022-08-22T12:33:31.411Z,1.07
2022-08-22T12:36:32.719Z,1.50
2022-08-22T12:39:33.740Z,1.13
2022-08-22T12:42:21.692Z,1.20
2022-08-22T12:45:11.879Z,1.20
2022-08-22T12:47:54.731Z,1.00
2022-08-22T12:50:42.264Z,1.40
2022-08-22T12:53:33.591Z,1.20
2022-08-22T12:56:12.134Z,1.43
2022-08-22T12:59:08.163Z,1.10
2022-08-22T13:01:40.183Z,1.23
2022-08-22T13:04:19.154Z,1.20
2022-08-22T13:07:08.165Z,1.20
2022-08-22T13:09:37.292Z,1.20
2022-08-22T13:12:15.565Z,1.57
2022-08-22T13:14:51.643Z,1.40
2022-08-22T13:17:24.988Z,1.13
2022-08-22T13:20:08.864Z,1.43
2022-08-22T13:22:39.024Z,1.23
2022-08-22T13:25:08.820Z,1.50
2022-08-22T13:27:51.095Z,1.17
2022-08-22T13:30:21.611Z,1.53
2022-08-22T13:32:51.026Z,1.70
2022-08-22T13:35:23.865Z,1.63
2022-08-22T13:37:55.739Z,1.43
2022-08-22T13:40:26.692Z,1.27
2022-08-22T13:43:02.251Z,1.60
2022-08-22T13:45:30.015Z,1.40
2022-08-22T13:48:03.632Z,1.50
2022-08-22T13:50:53.206Z,2.13
2022-08-22T13:53:30.491Z,1.47
2022-08-22T13:56:06.539Z,1.50
2022-08-22T13:58:45.573Z,1.43
2022-08-22T14:01:37.483Z,1.43
2022-08-22T14:04:28.700Z,1.20
2022-08-22T14:07:23.849Z,1.50
2022-08-22T14:09:56.065Z,1.53
2022-08-22T14:12:26.835Z,1.20
2022-08-22T14:14:58.893Z,1.60
2022-08-22T14:17:34.770Z,1.80
2022-08-22T14:20:08.538Z,1.70
2022-08-22T14:22:54.263Z,1.50
2022-08-22T14:25:26.970Z,1.80
2022-08-22T14:28:03.217Z,1.70
2022-08-22T14:30:38.701Z,1.60
2022-08-22T14:33:11.707Z,1.67
2022-08-22T14:35:52.892Z,1.67
2022-08-22T14:38:29.955Z,1.70
2022-08-22T14:41:05.471Z,1.70
2022-08-22T14:43:51.483Z,1.60
2022-08-22T14:46:26.533Z,1.27
2022-08-22T14:49:13.966Z,1.60
2022-08-22T14:51:50.733Z,1.50
2022-08-22T14:54:22.897Z,1.87
2022-08-22T14:56:58.363Z,1.40
2022-08-22T14:59:38.524Z,1.50
2022-08-22T15:02:09.676Z,1.37
2022-08-22T15:04:40.677Z,1.40
2022-08-22T15:07:12.261Z,1.50
2022-08-22T15:09:43.311Z,1.20
2022-08-22T15:12:27.363Z,1.70
2022-08-22T15:14:56.468Z,1.37
2022-08-22T15:17:36.338Z,1.70
2022-08-22T15:20:22.879Z,1.37
2022-08-22T15:22:58.271Z,1.30
2022-08-22T15:25:30.720Z,1.40
2022-08-22T15:28:05.177Z,1.40
2022-08-22T15:30:36.819Z,1.10
2022-08-22T15:33:23.453Z,1.30
2022-08-22T15:35:52.698Z,1.93
2022-08-22T15:38:30.144Z,1.30
2022-08-22T15:41:38.607Z,1.13
2022-08-22T15:44:30.593Z,1.63
2022-08-22T15:47:10.925Z,1.60
2022-08-22T15:49:52.148Z,1.60
2022-08-22T15:52:28.015Z,1.70
2022-08-22T15:55:19.075Z,1.33
2022-08-22T15:58:00.057Z,1.60
2022-08-22T16:00:35.672Z,1.47
2022-08-22T16:03:07.371Z,1.57
2022-08-22T16:05:44.556Z,1.50
2022-08-22T16:08:15.434Z,1.60
2022-08-22T16:10:46.556Z,1.57
2022-08-22T16:13:38.396Z,1.80
2022-08-22T16:16:09.707Z,1.67
2022-08-22T16:19:18.865Z,1.60
2022-08-22T16:22:22.357Z,1.50
2022-08-22T16:25:01.993Z,1.30
2022-08-22T16:27:29.750Z,1.57
2022-08-22T16:30:12.043Z,1.37
2022-08-22T16:32:39.311Z,1.20
2022-08-22T16:35:06.770Z,1.53
2022-08-22T16:37:54.854Z,1.50
2022-08-22T16:40:25.841Z,1.70
2022-08-22T16:43:16.364Z,2.07
2022-08-22T16:45:45.521Z,1.40
2022-08-22T16:48:31.772Z,1.33
2022-08-22T16:51:12.550Z,1.50
2022-08-22T16:54:20.928Z,0.97
2022-08-22T16:57:10.867Z,1.20
2022-08-22T16:59:54.108Z,1.43
2022-08-22T17:02:43.110Z,1.57
2022-08-22T17:05:35.177Z,1.37
2022-08-22T17:08:14.570Z,1.60
2022-08-22T17:10:52.158Z,1.30
2022-08-22T17:13:42.653Z,1.80
2022-08-22T17:16:27.664Z,1.80
2022-08-22T17:19:06.026Z,1.60
2022-08-22T17:21:39.706Z,1.77
2022-08-22T17:24:14.086Z,1.60
2022-08-22T17:27:06.268Z,1.53
2022-08-22T17:29:48.438Z,2.03
2022-08-22T17:32:34.100Z,1.50
2022-08-22T17:35:13.768Z,1.90
2022-08-22T17:37:49.847Z,1.50
2022-08-22T17:40:30.746Z,1.70
2022-08-22T17:43:08.831Z,1.70
2022-08-22T17:49:24.560Z,1.70
2022-08-22T17:51:58.933Z,1.50
2022-08-22T17:54:33.161Z,1.63
2022-08-22T17:57:06.409Z,2.37
2022-08-22T17:59:44.321Z,1.40
2022-08-22T18:02:16.869Z,1.53
2022-08-22T18:04:49.700Z,1.70
2022-08-22T18:07:41.857Z,1.80
2022-08-22T18:10:21.312Z,1.80
2022-08-22T18:12:55.810Z,1.90
2022-08-22T18:15:28.630Z,1.57
2022-08-22T18:18:01.137Z,1.30
2022-08-22T18:20:34.803Z,1.83
2022-08-22T18:23:15.284Z,2.03
2022-08-22T18:26:02.100Z,1.50
2022-08-22T18:28:37.511Z,1.70
2022-08-22T18:31:07.776Z,1.80
2022-08-22T18:33:39.541Z,1.70
2022-08-22T18:36:14.938Z,2.03
2022-08-22T18:38:54.512Z,1.70
2022-08-22T18:41:28.777Z,2.00
2022-08-22T18:43:58.909Z,1.93
2022-08-22T18:46:31.057Z,1.60
2022-08-22T18:49:15.179Z,1.63
2022-08-22T18:51:43.542Z,1.97
2022-08-22T18:54:31.783Z,2.57
2022-08-22T18:57:07.605Z,2.27
2022-08-22T18:59:46.269Z,2.10
2022-08-22T19:02:32.368Z,2.10
2022-08-22T19:05:27.192Z,2.10
2022-08-22T19:08:30.892Z,2.00
2022-08-22T19:11:16.055Z,2.07
2022-08-22T19:14:15.508Z,2.00
2022-08-22T19:17:07.339Z,2.13
2022-08-22T19:20:06.690Z,2.03
2022-08-22T19:22:36.118Z,2.17
2022-08-22T19:25:18.145Z,1.90
2022-08-22T19:28:07.976Z,2.27
2022-08-22T19:30:41.123Z,1.97
2022-08-22T19:33:10.348Z,2.07
2022-08-22T19:36:00.851Z,2.10
2022-08-22T19:38:51.197Z,2.23
2022-08-22T19:41:51.772Z,1.80
2022-08-22T19:44:39.217Z,2.20
2022-08-22T19:47:21.396Z,1.63
2022-08-22T19:50:00.432Z,1.57
2022-08-22T19:52:42.967Z,1.80
2022-08-22T19:55:16.449Z,2.27
2022-08-22T19:57:55.244Z,1.53
2022-08-22T20:00:41.360Z,1.73
2022-08-22T20:03:13.707Z,1.77
2022-08-22T20:05:56.993Z,2.00
2022-08-22T20:08:42.014Z,1.87
2022-08-22T20:11:24.262Z,2.00
2022-08-22T20:14:10.869Z,1.67
2022-08-22T20:17:18.100Z,2.00
2022-08-22T20:22:43.977Z,1.90
2022-08-22T20:25:43.109Z,1.90
2022-08-22T20:28:07.822Z,2.33
2022-08-22T20:30:46.711Z,1.90
2022-08-22T20:33:22.972Z,2.27
2022-08-22T20:35:55.016Z,2.03
2022-08-22T20:38:26.582Z,2.03
2022-08-22T20:41:20.648Z,1.70
2022-08-22T20:43:52.478Z,1.93
2022-08-22T20:46:43.537Z,1.70
2022-08-22T20:49:17.598Z,1.87
2022-08-22T20:51:52.773Z,1.93
2022-08-22T20:54:23.529Z,1.97
2022-08-22T20:56:54.004Z,2.20
2022-08-22T20:59:40.792Z,2.00
2022-08-22T21:02:20.447Z,2.03
2022-08-22T21:04:52.707Z,2.27
2022-08-22T21:07:29.094Z,2.03
2022-08-22T21:10:22.353Z,2.30
2022-08-22T21:13:16.286Z,2.47
2022-08-22T21:15:45.858Z,2.10
2022-08-22T21:18:14.592Z,2.43
2022-08-22T21:20:41.714Z,2.30
2022-08-22T21:23:17.120Z,2.30
2022-08-22T21:25:50.673Z,2.73
2022-08-22T21:28:33.419Z,2.67
2022-08-22T21:31:10.570Z,2.60
2022-08-22T21:33:41.918Z,2.33
2022-08-22T21:36:11.355Z,2.40
2022-08-22T21:38:40.144Z,2.60
2022-08-22T21:41:07.688Z,2.63
2022-08-22T21:43:38.433Z,2.23
2022-08-22T21:46:06.777Z,3.03
2022-08-22T21:48:36.893Z,2.83
2022-08-22T21:51:27.377Z,2.47
2022-08-22T21:54:27.699Z,2.87
2022-08-22T21:56:57.707Z,2.40
2022-08-22T21:59:50.759Z,2.77
2022-08-22T22:02:36.532Z,2.80
2022-08-22T22:05:08.506Z,2.97
2022-08-22T22:07:37.786Z,2.83
2022-08-22T22:10:07.206Z,2.90
2022-08-22T22:12:34.811Z,3.30
2022-08-22T22:15:01.908Z,3.07
2022-08-22T22:17:28.944Z,2.63
2022-08-22T22:19:55.930Z,2.97
2022-08-22T22:22:25.966Z,2.80
2022-08-22T22:24:53.064Z,2.93
2022-08-22T22:27:20.104Z,3.10
2022-08-22T22:29:47.670Z,2.83
2022-08-22T22:32:15.701Z,2.53
2022-08-22T22:34:42.667Z,3.57
2022-08-22T22:37:11.198Z,2.60
2022-08-22T22:39:38.617Z,2.70
2022-08-22T22:42:06.592Z,3.10
2022-08-22T22:44:33.592Z,2.63
2022-08-22T22:47:02.327Z,3.10
2022-08-22T22:49:30.518Z,2.70
2022-08-22T22:51:57.573Z,3.00
2022-08-22T22:54:27.314Z,2.73
2022-08-22T22:56:56.046Z,4.03
2022-08-22T22:59:28.318Z,3.07
2022-08-22T23:02:05.161Z,3.13
2022-08-22T23:04:34.618Z,3.13
2022-08-22T23:07:03.519Z,2.87
2022-08-22T23:09:38.021Z,2.97
2022-08-22T23:12:06.986Z,2.90
2022-08-22T23:14:35.160Z,3.40
2022-08-22T23:17:03.427Z,3.03
2022-08-22T23:19:30.402Z,3.23
2022-08-22T23:21:59.611Z,3.00
2022-08-22T23:24:29.008Z,3.00
2022-08-22T23:26:56.269Z,3.10
2022-08-22T23:29:25.578Z,3.30
2022-08-22T23:31:54.166Z,2.70
2022-08-22T23:34:27.498Z,2.97
2022-08-22T23:36:57.015Z,3.10
2022-08-22T23:39:25.565Z,3.27
2022-08-22T23:41:52.782Z,3.33
2022-08-22T23:44:25.421Z,3.17
2022-08-22T23:46:52.630Z,3.00
2022-08-22T23:49:19.694Z,3.70
2022-08-22T23:51:48.158Z,2.90
2022-08-22T23:54:16.188Z,3.40
2022-08-22T23:56:45.724Z,3.37
2022-08-22T23:59:15.618Z,3.23
